createdAt,value
2022-08-19T00:02:18.056Z,2.78
2022-08-19T00:04:48.182Z,2.35
2022-08-19T00:07:15.932Z,2.70
2022-08-19T00:09:43.460Z,2.38
2022-08-19T00:12:11.560Z,2.78
2022-08-19T00:14:40.470Z,2.83
2022-08-19T00:17:09.653Z,2.45
2022-08-19T00:19:38.171Z,2.30
2022-08-19T00:22:06.519Z,2.63
2022-08-19T00:24:34.045Z,2.70
2022-08-19T00:27:26.533Z,2.50
2022-08-19T00:29:52.530Z,2.50
2022-08-19T00:32:21.041Z,2.97
2022-08-19T00:34:48.498Z,3.10
2022-08-19T00:37:15.995Z,3.97
2022-08-19T00:39:43.586Z,3.53
2022-08-19T00:42:15.661Z,3.47
2022-08-19T00:44:44.395Z,4.00
2022-08-19T00:47:14.187Z,4.20
2022-08-19T00:49:50.049Z,4.22
2022-08-19T00:52:24.258Z,4.47
2022-08-19T00:54:54.201Z,4.80
2022-08-19T00:57:29.897Z,5.07
2022-08-19T01:00:03.098Z,5.22
2022-08-19T01:02:33.662Z,4.95
2022-08-19T01:05:03.935Z,5.45
2022-08-19T01:07:37.901Z,6.55
2022-08-19T01:10:08.901Z,7.20
2022-08-19T01:12:36.523Z,7.00
2022-08-19T01:15:05.797Z,7.80
2022-08-19T01:17:34.339Z,8.02
2022-08-19T01:20:01.944Z,7.90
2022-08-19T01:22:36.038Z,8.07
2022-08-19T01:25:04.445Z,8.20
2022-08-19T01:27:43.275Z,8.98
2022-08-19T01:30:15.704Z,9.55
2022-08-19T01:32:44.556Z,9.10
2022-08-19T01:35:18.160Z,10.40
2022-08-19T01:37:48.488Z,8.80
2022-08-19T01:40:17.200Z,10.45
2022-08-19T01:42:44.730Z,11.90
2022-08-19T01:45:12.298Z,12.27
2022-08-19T01:47:39.813Z,11.73
2022-08-19T01:50:10.248Z,9.88
2022-08-19T01:52:39.579Z,9.00
2022-08-19T01:55:10.184Z,8.48
2022-08-19T01:57:39.335Z,9.20
2022-08-19T02:00:11.497Z,9.23
2022-08-19T02:02:39.283Z,8.55
2022-08-19T02:05:10.647Z,8.48
2022-08-19T02:07:41.218Z,8.65
2022-08-19T02:10:16.626Z,8.10
2022-08-19T02:12:45.083Z,8.10
2022-08-19T02:15:13.175Z,6.60
2022-08-19T02:17:41.262Z,6.50
2022-08-19T02:20:10.418Z,6.13
2022-08-19T02:22:38.026Z,7.20
2022-08-19T02:25:06.210Z,6.83
2022-08-19T02:27:34.649Z,8.05
2022-08-19T02:30:02.622Z,7.72
2022-08-19T02:32:31.854Z,7.25
2022-08-19T02:34:59.352Z,6.78
2022-08-19T02:37:45.732Z,7.03
2022-08-19T02:40:13.759Z,6.13
2022-08-19T02:42:42.164Z,6.03
2022-08-19T02:45:10.532Z,5.45
2022-08-19T02:47:39.128Z,5.60
2022-08-19T02:50:08.217Z,4.83
2022-08-19T02:52:36.451Z,5.03
2022-08-19T02:55:04.997Z,4.40
2022-08-19T02:57:33.095Z,4.82
2022-08-19T03:00:00.620Z,4.75
2022-08-19T03:02:28.679Z,4.53
2022-08-19T03:04:56.230Z,4.78
2022-08-19T03:07:23.822Z,4.55
2022-08-19T03:09:54.116Z,4.50
2022-08-19T03:12:21.601Z,5.07
2022-08-19T03:14:49.241Z,4.80
2022-08-19T03:17:16.763Z,4.90
2022-08-19T03:19:44.476Z,4.82
2022-08-19T03:22:12.461Z,5.25
2022-08-19T03:24:40.289Z,5.75
2022-08-19T03:27:08.001Z,5.63
2022-08-19T03:29:43.969Z,5.72
2022-08-19T03:32:19.827Z,5.90
2022-08-19T03:34:59.552Z,6.55
2022-08-19T03:37:30.119Z,6.10
2022-08-19T03:39:57.631Z,5.27
2022-08-19T03:42:38.735Z,5.72
2022-08-19T03:45:13.847Z,5.43
2022-08-19T03:47:41.296Z,4.82
2022-08-19T03:50:12.107Z,5.50
2022-08-19T03:52:40.678Z,6.00
2022-08-19T03:55:13.030Z,6.13
2022-08-19T03:57:40.564Z,5.55
2022-08-19T04:00:13.082Z,6.32
2022-08-19T04:02:58.060Z,4.68
2022-08-19T04:05:29.845Z,5.47
2022-08-19T04:08:00.441Z,5.88
2022-08-19T04:10:29.459Z,6.20
2022-08-19T04:12:56.886Z,7.50
2022-08-19T04:15:24.406Z,7.53
2022-08-19T04:17:51.912Z,7.10
2022-08-19T04:20:19.578Z,7.30
2022-08-19T04:22:47.490Z,5.53
2022-08-19T04:25:17.021Z,5.25
2022-08-19T04:27:47.690Z,4.13
2022-08-19T04:30:16.249Z,3.40
2022-08-19T04:32:45.054Z,3.85
2022-08-19T04:35:16.727Z,3.50
2022-08-19T04:37:46.425Z,3.30
2022-08-19T04:40:33.381Z,3.92
2022-08-19T04:43:02.286Z,3.60
2022-08-19T04:45:32.727Z,3.30
2022-08-19T04:48:26.932Z,4.07
2022-08-19T04:51:00.799Z,4.32
2022-08-19T04:53:35.539Z,4.38
2022-08-19T04:56:14.888Z,4.90
2022-08-19T04:58:45.314Z,4.65
2022-08-19T05:01:20.063Z,5.07
2022-08-19T05:03:48.620Z,5.00
2022-08-19T05:06:17.679Z,4.93
2022-08-19T05:08:45.840Z,4.70
2022-08-19T05:11:22.439Z,4.20
2022-08-19T05:13:53.957Z,4.72
2022-08-19T05:16:24.056Z,4.95
2022-08-19T05:19:10.209Z,7.93
2022-08-19T05:21:56.332Z,11.37
2022-08-19T05:24:24.971Z,13.00
2022-08-19T05:26:57.705Z,10.30
2022-08-19T05:29:27.717Z,7.10
2022-08-19T05:32:06.493Z,5.10
2022-08-19T05:34:36.103Z,4.50
2022-08-19T05:37:05.870Z,4.00
2022-08-19T05:39:36.207Z,3.92
2022-08-19T05:42:10.116Z,3.30
2022-08-19T05:44:41.175Z,3.15
2022-08-19T05:47:10.266Z,3.17
2022-08-19T05:49:38.671Z,3.15
2022-08-19T05:52:08.926Z,2.90
2022-08-19T05:54:39.245Z,2.80
2022-08-19T05:57:07.136Z,2.58
2022-08-19T05:59:39.614Z,2.60
2022-08-19T06:02:08.761Z,2.83
2022-08-19T06:04:36.726Z,2.72
2022-08-19T06:07:12.337Z,2.67
2022-08-19T06:09:43.693Z,2.20
2022-08-19T06:12:30.060Z,2.67
2022-08-19T06:15:01.036Z,2.53
2022-08-19T06:17:31.941Z,2.35
2022-08-19T06:20:11.236Z,2.22
2022-08-19T06:22:43.248Z,2.35
2022-08-19T06:25:11.501Z,1.80
2022-08-19T06:27:48.354Z,2.00
2022-08-19T06:30:26.788Z,1.92
2022-08-19T06:32:54.851Z,1.80
2022-08-19T06:35:22.520Z,1.90
2022-08-19T06:37:51.187Z,1.83
2022-08-19T06:40:18.902Z,1.50
2022-08-19T06:42:55.011Z,1.55
2022-08-19T06:45:24.813Z,1.60
2022-08-19T06:47:57.152Z,1.52
2022-08-19T06:50:26.203Z,2.03
2022-08-19T06:52:55.530Z,3.92
2022-08-19T06:55:23.362Z,3.35
2022-08-19T06:57:54.714Z,2.65
2022-08-19T07:00:22.441Z,2.72
2022-08-19T07:02:55.817Z,3.10
2022-08-19T07:05:27.055Z,1.83
2022-08-19T07:07:57.537Z,1.67
2022-08-19T07:10:26.595Z,2.10
2022-08-19T07:12:55.260Z,2.58
2022-08-19T07:15:22.876Z,2.23
2022-08-19T07:17:52.533Z,2.20
2022-08-19T07:20:20.934Z,1.65
2022-08-19T07:22:49.374Z,2.88
2022-08-19T07:25:19.123Z,2.92
2022-08-19T07:27:46.631Z,1.80
2022-08-19T07:30:23.550Z,1.60
2022-08-19T07:32:53.976Z,1.75
2022-08-19T07:35:21.768Z,2.00
2022-08-19T07:37:49.345Z,1.65
2022-08-19T07:40:17.118Z,2.33
2022-08-19T07:42:44.713Z,2.35
2022-08-19T07:45:12.491Z,2.30
2022-08-19T07:47:48.288Z,1.98
2022-08-19T07:50:21.086Z,2.20
2022-08-19T07:52:51.065Z,2.00
2022-08-19T07:55:41.202Z,2.25
2022-08-19T07:58:11.227Z,1.60
2022-08-19T08:00:38.906Z,1.60
2022-08-19T08:03:06.594Z,1.42
2022-08-19T08:05:52.425Z,1.40
2022-08-19T08:08:44.330Z,1.20
2022-08-19T08:11:21.327Z,1.27
2022-08-19T08:14:00.723Z,1.30
2022-08-19T08:16:47.333Z,1.20
2022-08-19T08:19:25.472Z,1.53
2022-08-19T08:21:55.351Z,1.23
2022-08-19T08:24:23.426Z,1.30
2022-08-19T08:26:59.845Z,1.13
2022-08-19T08:29:34.746Z,1.10
2022-08-19T08:32:14.823Z,1.30
2022-08-19T08:34:43.604Z,1.40
2022-08-19T08:37:11.247Z,1.38
2022-08-19T08:39:39.864Z,1.50
2022-08-19T08:42:33.973Z,1.63
2022-08-19T08:45:19.257Z,1.80
2022-08-19T08:47:52.306Z,1.83
2022-08-19T08:50:23.892Z,1.92
2022-08-19T08:52:58.388Z,1.40
2022-08-19T08:55:36.595Z,1.52
2022-08-19T08:58:15.094Z,1.57
2022-08-19T09:00:46.799Z,2.13
2022-08-19T09:03:27.392Z,2.03
2022-08-19T09:06:12.009Z,1.52
2022-08-19T09:09:03.447Z,1.77
2022-08-19T09:11:41.927Z,1.83
2022-08-19T09:14:40.609Z,1.80
2022-08-19T09:17:10.679Z,1.98
2022-08-19T09:19:51.763Z,2.50
2022-08-19T09:22:25.374Z,2.40
2022-08-19T09:24:53.731Z,2.30
2022-08-19T09:27:42.519Z,2.60
2022-08-19T09:30:17.346Z,3.00
2022-08-19T09:32:45.792Z,3.60
2022-08-19T09:35:15.216Z,2.45
2022-08-19T09:37:44.916Z,2.53
2022-08-19T09:40:13.722Z,3.35
2022-08-19T09:42:50.426Z,2.80
2022-08-19T09:45:23.234Z,2.47
2022-08-19T09:47:54.504Z,2.55
2022-08-19T09:50:24.143Z,3.73
2022-08-19T09:52:57.442Z,3.40
2022-08-19T09:55:31.160Z,4.05
2022-08-19T09:58:03.001Z,4.00
2022-08-19T10:00:34.785Z,4.55
2022-08-19T10:03:02.234Z,3.10
2022-08-19T10:05:49.262Z,3.10
2022-08-19T10:08:20.580Z,4.25
2022-08-19T10:10:49.786Z,3.95
2022-08-19T10:13:32.904Z,3.00
2022-08-19T10:16:10.313Z,3.23
2022-08-19T10:18:38.957Z,3.22
2022-08-19T10:21:15.602Z,3.35
2022-08-19T10:23:46.450Z,3.35
2022-08-19T10:26:24.409Z,4.03
2022-08-19T10:28:55.074Z,4.37
2022-08-19T10:32:01.215Z,5.20
2022-08-19T10:34:27.492Z,5.20
2022-08-19T10:37:01.120Z,5.20
2022-08-19T10:39:32.641Z,6.47
2022-08-19T10:42:14.488Z,7.37
2022-08-19T10:44:42.955Z,7.18
2022-08-19T10:47:17.504Z,7.03
2022-08-19T10:50:14.154Z,7.03
2022-08-19T10:52:49.266Z,8.13
2022-08-19T10:55:40.014Z,6.73
2022-08-19T10:58:23.329Z,7.28
2022-08-19T11:00:56.409Z,8.40
2022-08-19T11:03:25.017Z,7.60
2022-08-19T11:06:02.686Z,10.50
2022-08-19T11:08:31.825Z,9.30
2022-08-19T11:11:02.497Z,9.88
2022-08-19T11:13:38.951Z,8.98
2022-08-19T11:16:19.467Z,9.65
2022-08-19T11:18:52.549Z,7.53
2022-08-19T11:21:28.574Z,7.97
2022-08-19T11:23:59.071Z,7.68
2022-08-19T11:26:29.308Z,7.53
2022-08-19T11:28:58.021Z,8.73
2022-08-19T11:31:29.447Z,11.50
2022-08-19T11:34:02.740Z,9.50
2022-08-19T11:36:32.602Z,9.65
2022-08-19T11:39:00.468Z,8.68
2022-08-19T11:41:28.488Z,7.93
2022-08-19T11:43:56.426Z,8.13
2022-08-19T11:46:30.688Z,8.97
2022-08-19T11:49:00.557Z,9.07
2022-08-19T11:51:29.158Z,8.77
2022-08-19T11:53:58.815Z,9.27
2022-08-19T11:56:30.122Z,9.40
2022-08-19T11:58:58.127Z,9.83
2022-08-19T12:01:27.485Z,10.15
2022-08-19T12:03:56.634Z,9.27
2022-08-19T12:06:30.441Z,8.82
2022-08-19T12:09:03.920Z,11.18
2022-08-19T12:11:34.378Z,8.90
2022-08-19T12:14:02.569Z,10.30
2022-08-19T12:16:31.957Z,9.15
2022-08-19T12:19:05.079Z,10.02
2022-08-19T12:21:35.275Z,12.40
2022-08-19T12:24:05.622Z,12.43
2022-08-19T12:26:34.256Z,10.82
2022-08-19T12:29:04.327Z,10.55
2022-08-19T12:31:32.365Z,12.38
2022-08-19T12:34:00.117Z,11.00
2022-08-19T12:36:27.662Z,13.40
2022-08-19T12:38:55.313Z,14.00
2022-08-19T12:41:23.536Z,12.27
2022-08-19T12:43:51.366Z,14.45
2022-08-19T12:46:22.308Z,14.73
2022-08-19T12:48:55.374Z,14.93
2022-08-19T12:51:24.015Z,15.48
2022-08-19T12:53:51.510Z,17.90
2022-08-19T12:56:23.178Z,16.50
2022-08-19T12:58:53.004Z,16.90
2022-08-19T13:01:23.003Z,14.50
2022-08-19T13:03:53.719Z,15.98
2022-08-19T13:06:21.855Z,15.88
2022-08-19T13:08:49.382Z,16.10
2022-08-19T13:11:20.031Z,17.75
2022-08-19T13:13:49.892Z,15.40
2022-08-19T13:16:18.482Z,14.32
2022-08-19T13:18:54.112Z,13.15
2022-08-19T13:21:24.261Z,11.93
2022-08-19T13:23:52.892Z,10.93
2022-08-19T13:26:20.555Z,11.80
2022-08-19T13:29:07.065Z,10.20
2022-08-19T13:31:55.754Z,11.23
2022-08-19T13:34:34.238Z,11.20
2022-08-19T13:37:05.900Z,11.30
2022-08-19T13:39:34.662Z,10.30
2022-08-19T13:42:05.990Z,10.10
2022-08-19T13:44:33.522Z,10.05
2022-08-19T13:47:10.019Z,11.32
2022-08-19T13:49:37.890Z,10.25
2022-08-19T13:52:06.964Z,14.37
2022-08-19T13:54:34.556Z,12.20
2022-08-19T13:57:09.698Z,12.02
2022-08-19T13:59:37.411Z,9.90
2022-08-19T14:02:06.694Z,9.70
2022-08-19T14:04:34.179Z,9.75
2022-08-19T14:07:02.821Z,8.93
2022-08-19T14:09:30.921Z,8.30
2022-08-19T14:11:58.765Z,9.73
2022-08-19T14:14:26.289Z,11.02
2022-08-19T14:16:53.810Z,10.55
2022-08-19T14:19:21.311Z,10.60
2022-08-19T14:21:49.186Z,9.95
2022-08-19T14:24:16.738Z,13.57
2022-08-19T14:26:44.247Z,13.65
2022-08-19T14:29:11.740Z,12.50
2022-08-19T14:31:43.661Z,14.30
2022-08-19T14:34:12.172Z,13.05
2022-08-19T14:36:39.976Z,11.90
2022-08-19T14:39:10.707Z,12.88
2022-08-19T14:41:41.084Z,12.38
2022-08-19T14:44:11.211Z,12.10
2022-08-19T14:46:38.753Z,13.68
2022-08-19T14:49:09.483Z,12.05
2022-08-19T14:51:37.215Z,14.32
2022-08-19T14:54:04.971Z,14.02
2022-08-19T14:56:32.580Z,13.77
2022-08-19T14:59:02.203Z,14.88
2022-08-19T15:01:30.773Z,15.88
2022-08-19T15:03:58.307Z,14.65
2022-08-19T15:06:27.033Z,13.75
2022-08-19T15:08:56.098Z,11.33
2022-08-19T15:11:28.991Z,10.73
2022-08-19T15:13:57.544Z,11.43
2022-08-19T15:16:26.530Z,9.23
2022-08-19T15:18:58.003Z,9.35
2022-08-19T15:21:27.056Z,10.67
2022-08-19T15:23:57.297Z,9.57
2022-08-19T15:26:26.937Z,10.90
2022-08-19T15:28:54.912Z,8.30
2022-08-19T15:31:28.189Z,8.85
2022-08-19T15:33:59.503Z,10.17
2022-08-19T15:36:29.126Z,12.98
2022-08-19T15:38:57.344Z,13.43
2022-08-19T15:41:28.306Z,11.30
2022-08-19T15:44:04.641Z,14.70
2022-08-19T15:46:33.993Z,14.03
2022-08-19T15:49:01.601Z,12.98
2022-08-19T15:51:35.641Z,14.00
2022-08-19T15:54:09.985Z,9.45
2022-08-19T15:57:07.298Z,9.27
2022-08-19T15:59:54.750Z,6.40
2022-08-19T16:02:46.227Z,7.55
2022-08-19T16:05:35.981Z,6.40
2022-08-19T16:08:04.010Z,5.75
2022-08-19T16:10:31.614Z,7.28
2022-08-19T16:12:59.462Z,7.20
2022-08-19T16:15:29.192Z,6.22
2022-08-19T16:17:58.509Z,5.60
2022-08-19T16:20:28.961Z,6.53
2022-08-19T16:22:58.755Z,7.60
2022-08-19T16:25:28.798Z,5.60
2022-08-19T16:28:07.571Z,7.82
2022-08-19T16:30:39.132Z,6.22
2022-08-19T16:33:08.675Z,6.03
2022-08-19T16:35:39.659Z,5.82
2022-08-19T16:38:07.256Z,6.27
2022-08-19T16:40:35.415Z,5.18
2022-08-19T16:43:03.446Z,5.47
2022-08-19T16:45:31.061Z,5.03
2022-08-19T16:47:58.606Z,3.33
2022-08-19T16:50:47.850Z,2.93
2022-08-19T16:53:17.957Z,2.97
2022-08-19T16:55:51.111Z,2.47
2022-08-19T16:58:19.287Z,2.30
2022-08-19T17:00:48.792Z,1.80
2022-08-19T17:03:18.118Z,1.33
2022-08-19T17:05:53.827Z,1.50
2022-08-19T17:08:22.985Z,1.50
2022-08-19T17:11:16.607Z,1.30
2022-08-19T17:13:39.216Z,2.97
2022-08-19T17:16:08.475Z,1.80
2022-08-19T17:18:35.937Z,2.20
2022-08-19T17:21:03.588Z,2.50
2022-08-19T17:23:42.686Z,1.50
2022-08-19T17:26:18.129Z,1.77
2022-08-19T17:28:52.034Z,1.70
2022-08-19T17:31:23.376Z,1.58
2022-08-19T17:33:52.089Z,1.52
2022-08-19T17:36:24.178Z,1.15
2022-08-19T17:38:55.536Z,1.10
2022-08-19T17:41:27.582Z,1.60
2022-08-19T17:43:55.079Z,0.95
2022-08-19T17:46:22.665Z,1.25
2022-08-19T17:48:53.022Z,1.42
2022-08-19T17:51:27.633Z,1.13
2022-08-19T17:53:55.271Z,1.50
2022-08-19T17:56:24.980Z,1.73
2022-08-19T17:59:00.315Z,1.30
2022-08-19T18:01:51.929Z,1.23
2022-08-19T18:04:20.401Z,1.00
2022-08-19T18:06:53.248Z,1.10
2022-08-19T18:09:24.374Z,0.98
2022-08-19T18:11:54.719Z,1.00
2022-08-19T18:14:32.055Z,1.00
2022-08-19T18:17:06.470Z,1.30
2022-08-19T18:19:41.209Z,1.43
2022-08-19T18:22:27.843Z,1.30
2022-08-19T18:24:57.894Z,1.38
2022-08-19T18:27:28.025Z,1.85
2022-08-19T18:29:59.963Z,1.48
2022-08-19T18:32:40.084Z,1.30
2022-08-19T18:35:17.434Z,1.45
2022-08-19T18:37:46.149Z,1.63
2022-08-19T18:40:37.295Z,2.08
2022-08-19T18:43:25.022Z,0.95
2022-08-19T18:46:10.893Z,0.90
2022-08-19T18:48:58.490Z,0.90
2022-08-19T18:51:30.330Z,1.13
2022-08-19T18:53:59.212Z,0.82
2022-08-19T18:56:32.038Z,0.90
2022-08-19T18:59:02.528Z,1.20
2022-08-19T19:01:35.682Z,1.20
2022-08-19T19:04:10.866Z,1.02
2022-08-19T19:06:42.423Z,1.10
2022-08-19T19:09:17.793Z,1.55
2022-08-19T19:11:51.613Z,1.13
2022-08-19T19:14:47.787Z,1.00
2022-08-19T19:17:15.224Z,1.23
2022-08-19T19:19:44.937Z,1.23
2022-08-19T19:22:17.707Z,1.25
2022-08-19T19:24:45.571Z,0.97
2022-08-19T19:27:15.917Z,1.60
2022-08-19T19:29:43.461Z,1.42
2022-08-19T19:32:19.793Z,1.50
2022-08-19T19:34:47.867Z,1.25
2022-08-19T19:37:16.828Z,1.73
2022-08-19T19:39:45.972Z,1.42
2022-08-19T19:42:21.380Z,1.85
2022-08-19T19:44:52.094Z,1.95
2022-08-19T19:47:20.227Z,2.30
2022-08-19T19:52:40.493Z,1.92
2022-08-19T19:55:10.100Z,2.20
2022-08-19T19:57:39.503Z,2.13
2022-08-19T20:00:09.112Z,2.63
2022-08-19T20:02:36.589Z,2.10
2022-08-19T20:05:05.131Z,1.95
2022-08-19T20:07:54.657Z,2.33
2022-08-19T20:10:22.377Z,1.65
2022-08-19T20:12:55.095Z,1.58
2022-08-19T20:15:24.459Z,1.53
2022-08-19T20:17:51.900Z,1.60
2022-08-19T20:20:19.636Z,2.00
2022-08-19T20:22:47.839Z,3.58
2022-08-19T20:25:18.038Z,2.58
2022-08-19T20:27:50.512Z,1.83
2022-08-19T20:30:20.538Z,2.03
2022-08-19T20:32:49.866Z,1.13
2022-08-19T20:35:19.567Z,1.40
2022-08-19T20:37:47.427Z,2.17
2022-08-19T20:40:16.935Z,1.47
2022-08-19T20:42:50.864Z,1.40
2022-08-19T20:45:32.316Z,1.40
2022-08-19T20:48:03.617Z,1.60
2022-08-19T20:50:36.620Z,1.75
2022-08-19T20:53:16.533Z,1.33
2022-08-19T20:55:46.386Z,2.00
2022-08-19T20:58:15.043Z,1.77
2022-08-19T21:00:46.152Z,1.42
2022-08-19T21:03:18.164Z,1.40
2022-08-19T21:05:48.919Z,1.20
2022-08-19T21:08:18.601Z,1.40
2022-08-19T21:10:48.187Z,0.90
2022-08-19T21:13:17.210Z,1.30
2022-08-19T21:15:44.982Z,1.67
2022-08-19T21:18:14.573Z,1.00
2022-08-19T21:20:43.401Z,1.17
2022-08-19T21:23:14.421Z,1.73
2022-08-19T21:25:43.558Z,1.40
2022-08-19T21:28:34.994Z,1.52
2022-08-19T21:31:06.654Z,1.40
2022-08-19T21:33:34.930Z,1.20
2022-08-19T21:36:05.179Z,1.20
2022-08-19T21:38:33.384Z,1.00
2022-08-19T21:41:05.768Z,1.27
2022-08-19T21:43:35.092Z,1.57
2022-08-19T21:46:02.708Z,1.10
2022-08-19T21:48:30.734Z,1.08
2022-08-19T21:50:58.203Z,0.90
2022-08-19T21:53:25.945Z,1.30
2022-08-19T21:56:01.206Z,0.97
2022-08-19T21:58:30.661Z,1.52
2022-08-19T22:01:00.312Z,1.23
2022-08-19T22:03:28.905Z,1.42
2022-08-19T22:05:56.849Z,1.30
2022-08-19T22:08:24.887Z,1.20
2022-08-19T22:10:52.548Z,0.95
2022-08-19T22:13:20.728Z,1.15
2022-08-19T22:15:48.999Z,1.38
2022-08-19T22:18:18.073Z,1.50
2022-08-19T22:20:48.107Z,1.30
2022-08-19T22:23:15.567Z,1.10
2022-08-19T22:25:48.201Z,0.90
2022-08-19T22:28:18.911Z,1.27
2022-08-19T22:30:52.992Z,1.13
2022-08-19T22:33:23.759Z,1.10
2022-08-19T22:35:53.876Z,0.93
2022-08-19T22:38:22.362Z,0.88
2022-08-19T22:40:52.017Z,0.75
2022-08-19T22:43:23.290Z,0.80
2022-08-19T22:45:53.546Z,1.07
2022-08-19T22:48:23.669Z,1.13
2022-08-19T22:51:11.672Z,1.00
2022-08-19T22:53:42.766Z,1.20
2022-08-19T22:56:15.350Z,1.23
2022-08-19T22:58:43.810Z,0.80
2022-08-19T23:01:27.428Z,0.90
2022-08-19T23:04:00.161Z,1.75
2022-08-19T23:06:33.519Z,0.93
2022-08-19T23:09:07.286Z,1.02
2022-08-19T23:11:39.854Z,1.53
2022-08-19T23:14:11.604Z,0.88
2022-08-19T23:16:41.641Z,1.10
2022-08-19T23:19:10.989Z,1.05
2022-08-19T23:21:43.409Z,1.00
2022-08-19T23:24:13.008Z,1.27
2022-08-19T23:27:00.561Z,0.82
2022-08-19T23:29:50.880Z,1.38
2022-08-19T23:32:19.985Z,1.00
2022-08-19T23:34:47.898Z,1.20
2022-08-19T23:37:15.928Z,0.90
2022-08-19T23:39:45.249Z,1.15
2022-08-19T23:42:13.902Z,1.05
2022-08-19T23:44:51.521Z,0.80
2022-08-19T23:47:23.829Z,0.90
2022-08-19T23:49:51.448Z,1.50
2022-08-19T23:52:19.504Z,1.30
2022-08-19T23:54:48.008Z,0.90
2022-08-19T23:57:15.579Z,0.90
2022-08-19T23:59:46.502Z,1.40
